Time;durP1;ratioP1;P1;durP2;ratioP2;P2;SDS_P1;SDS_P2;PMS_P1;PMS_P2;Temp;Humidity;BMP_temperature;BMP_pressure;BME280_temperature;BME280_humidity;BME280_pressure;Samples;Min_cycle;Max_cycle;Signal;HPM_P1;HPM_P2
2022/01/06 00:01:48;;;;;;;6.15;4.60;;;2.30;84.80;;;;;;5054055;28;20320;-53
2022/01/06 00:04:15;;;;;;;5.28;4.45;;;2.20;85.40;;;;;;5053918;28;20620;-53
2022/01/06 00:06:43;;;;;;;7.70;4.25;;;2.20;85.50;;;;;;5053815;28;20288;-53
2022/01/06 00:09:14;;;;;;;6.07;4.63;;;2.20;85.90;;;;;;5053976;28;20201;-53
2022/01/06 00:11:42;;;;;;;6.70;4.68;;;2.30;85.90;;;;;;5052355;28;20587;-53
2022/01/06 00:14:15;;;;;;;5.55;4.75;;;2.40;85.70;;;;;;5053774;28;20308;-52
2022/01/06 00:16:47;;;;;;;6.63;4.97;;;2.30;86.10;;;;;;5053862;28;20263;-51
2022/01/06 00:24:43;;;;;;;7.90;5.53;;;2.20;86.80;;;;;;5053642;28;20204;-52
2022/01/06 00:27:11;;;;;;;7.60;4.90;;;2.30;87.00;;;;;;5052320;28;20241;-53
2022/01/06 00:29:38;;;;;;;10.82;5.13;;;2.50;86.80;;;;;;5053526;28;20212;-52
2022/01/06 00:32:06;;;;;;;6.03;4.78;;;2.60;85.80;;;;;;5053499;28;20246;-55
2022/01/06 00:34:32;;;;;;;8.10;5.13;;;2.60;85.70;;;;;;5053350;28;20208;-53
2022/01/06 00:37:00;;;;;;;5.05;4.32;;;2.60;85.10;;;;;;5053149;28;20296;-52
2022/01/06 00:39:28;;;;;;;7.43;4.45;;;2.50;85.60;;;;;;5053356;28;20205;-53
2022/01/06 00:41:57;;;;;;;8.40;5.10;;;2.40;86.00;;;;;;5051926;28;20243;-52
2022/01/06 00:44:25;;;;;;;9.05;4.97;;;2.50;86.10;;;;;;5053345;28;20209;-52
2022/01/06 00:46:53;;;;;;;5.88;4.60;;;2.50;85.60;;;;;;5053110;28;20207;-52
2022/01/06 00:49:20;;;;;;;8.55;4.88;;;2.50;85.60;;;;;;5053210;28;20212;-53
2022/01/06 00:51:47;;;;;;;8.25;4.95;;;2.60;85.70;;;;;;5053035;28;20209;-52
2022/01/06 00:54:14;;;;;;;6.38;4.75;;;2.50;85.60;;;;;;5053106;28;20206;-52
2022/01/06 00:56:41;;;;;;;8.55;4.53;;;2.40;86.50;;;;;;5051728;28;20208;-54
2022/01/06 00:59:08;;;;;;;5.15;4.47;;;2.40;87.30;;;;;;5053004;28;20208;-52
2022/01/06 01:01:37;;;;;;;9.02;4.75;;;2.20;87.60;;;;;;5052772;28;20599;-53
2022/01/06 01:04:04;;;;;;;8.07;4.90;;;2.20;88.00;;;;;;5053077;28;20198;-54
2022/01/06 01:06:31;;;;;;;8.20;4.85;;;2.10;88.30;;;;;;5052700;28;20237;-56
2022/01/06 01:08:58;;;;;;;11.20;4.90;;;2.00;89.10;;;;;;5052493;28;20618;-54
2022/01/06 01:11:25;;;;;;;9.77;4.22;;;1.90;88.90;;;;;;5051426;28;20249;-55
2022/01/06 01:13:56;;;;;;;10.63;4.40;;;1.90;88.80;;;;;;5052699;28;20217;-53
2022/01/06 01:16:27;;;;;;;6.80;4.50;;;2.00;88.90;;;;;;5052987;28;20236;-54
2022/01/06 01:18:57;;;;;;;6.80;4.43;;;1.90;88.60;;;;;;5052807;28;20944;-55
2022/01/06 01:21:27;;;;;;;6.28;4.30;;;1.90;88.70;;;;;;5052473;28;20679;-53
2022/01/06 01:23:54;;;;;;;9.73;4.53;;;2.00;88.80;;;;;;5052708;28;20653;-53
2022/01/06 01:26:21;;;;;;;8.90;4.15;;;2.10;88.70;;;;;;5051474;28;20259;-53
2022/01/06 01:28:50;;;;;;;8.82;4.35;;;2.10;88.10;;;;;;5052629;28;20232;-54
2022/01/06 01:31:28;;;;;;;7.00;4.50;;;2.10;88.10;;;;;;5052785;28;20202;-57
2022/01/06 01:34:06;;;;;;;9.98;4.30;;;2.10;88.30;;;;;;5052782;28;20266;-53
2022/01/06 01:36:33;;;;;;;5.90;3.90;;;2.30;87.90;;;;;;5052353;28;20207;-58
2022/01/06 01:39:00;;;;;;;7.22;4.45;;;2.30;87.20;;;;;;5052471;28;20217;-55
2022/01/06 01:41:27;;;;;;;6.13;4.43;;;2.40;87.00;;;;;;5051294;28;20699;-55
2022/01/06 01:43:55;;;;;;;8.02;3.88;;;2.40;87.10;;;;;;5052617;28;20207;-57
2022/01/06 01:46:28;;;;;;;7.20;4.68;;;2.40;87.20;;;;;;5052558;28;20209;-57
2022/01/06 01:49:13;;;;;;;8.98;4.68;;;2.40;87.50;;;;;;5052608;28;20258;-55
2022/01/06 01:51:40;;;;;;;6.60;4.70;;;2.40;87.30;;;;;;5052205;28;20567;-54
2022/01/06 01:54:08;;;;;;;8.02;4.97;;;2.40;87.50;;;;;;5052555;28;20207;-56
2022/01/06 01:56:34;;;;;;;4.93;4.03;;;2.30;87.60;;;;;;5051326;28;20236;-56
2022/01/06 01:59:02;;;;;;;7.28;4.57;;;2.30;88.30;;;;;;5052471;28;20207;-56
2022/01/06 02:01:29;;;;;;;8.73;5.75;;;2.30;88.30;;;;;;5052306;28;20225;-56
2022/01/06 02:03:57;;;;;;;8.57;4.80;;;2.20;89.00;;;;;;5052515;28;20205;-55
2022/01/06 02:06:24;;;;;;;10.15;5.15;;;2.10;89.60;;;;;;5052105;28;20603;-55
2022/01/06 02:08:54;;;;;;;8.43;4.82;;;2.10;89.90;;;;;;5052471;28;20213;-57
2022/01/06 02:11:21;;;;;;;6.93;4.63;;;2.10;90.20;;;;;;5050888;28;20237;-55
2022/01/06 02:13:49;;;;;;;7.60;5.20;;;2.10;90.30;;;;;;5052430;28;20624;-57
2022/01/06 02:16:20;;;;;;;13.38;5.00;;;2.00;90.40;;;;;;5052366;28;20233;-54
2022/01/06 02:18:46;;;;;;;11.80;5.35;;;2.00;90.90;;;;;;5053353;28;20288;-53
2022/01/06 02:21:15;;;;;;;7.28;3.90;;;2.10;91.20;;;;;;5055768;28;20301;-55
2022/01/06 02:23:43;;;;;;;10.18;4.72;;;2.20;90.70;;;;;;5056123;28;20558;-58
2022/01/06 02:26:10;;;;;;;7.95;4.68;;;2.30;90.30;;;;;;5054537;28;20206;-54
2022/01/06 02:28:37;;;;;;;10.70;5.38;;;2.30;89.90;;;;;;5055856;28;20208;-57
2022/01/06 02:31:04;;;;;;;9.27;6.13;;;2.30;89.60;;;;;;5055744;28;20220;-54
2022/01/06 02:33:31;;;;;;;6.75;3.92;;;2.20;89.80;;;;;;5055717;28;20197;-53
2022/01/06 02:35:58;;;;;;;10.45;3.97;;;2.30;90.00;;;;;;5055660;28;20292;-55
2022/01/06 02:38:26;;;;;;;5.15;4.20;;;2.40;89.90;;;;;;5055714;28;20201;-55
2022/01/06 02:40:53;;;;;;;6.30;5.70;;;2.60;89.40;;;;;;5054274;28;20240;-55
2022/01/06 02:43:24;;;;;;;8.63;4.25;;;2.60;88.60;;;;;;5055436;28;20240;-53
2022/01/06 02:45:51;;;;;;;6.55;4.25;;;2.60;88.40;;;;;;5055406;28;20682;-55
2022/01/06 02:48:18;;;;;;;11.98;4.82;;;2.50;88.50;;;;;;5055391;28;20204;-55
2022/01/06 02:50:47;;;;;;;9.13;4.20;;;2.40;88.60;;;;;;5055333;28;20209;-59
2022/01/06 02:53:15;;;;;;;5.93;4.90;;;2.50;88.80;;;;;;5055344;28;20205;-57
2022/01/06 02:55:50;;;;;;;5.80;4.25;;;2.50;88.40;;;;;;5055393;28;20301;-53
2022/01/06 02:58:17;;;;;;;11.80;4.45;;;2.40;88.30;;;;;;5055011;28;20232;-56
2022/01/06 03:00:43;;;;;;;6.90;4.07;;;2.40;88.90;;;;;;5055270;28;20209;-55
2022/01/06 03:03:10;;;;;;;7.10;4.22;;;2.40;88.60;;;;;;5055151;28;20239;-53
2022/01/06 03:05:37;;;;;;;9.05;4.38;;;2.40;88.80;;;;;;5055006;28;20202;-57
2022/01/06 03:08:05;;;;;;;10.65;4.15;;;2.30;88.90;;;;;;5055251;28;20562;-57
2022/01/06 03:10:36;;;;;;;8.57;4.53;;;2.30;89.10;;;;;;5055123;28;20775;-57
2022/01/06 03:13:04;;;;;;;9.13;3.95;;;2.30;89.00;;;;;;5053630;28;20236;-57
2022/01/06 03:15:31;;;;;;;8.90;4.22;;;2.30;89.40;;;;;;5054998;28;20656;-57
2022/01/06 03:17:59;;;;;;;6.78;4.35;;;2.30;89.80;;;;;;5054864;28;20653;-57
2022/01/06 03:20:27;;;;;;;7.20;4.38;;;2.30;89.80;;;;;;5054675;28;20205;-57
2022/01/06 03:22:55;;;;;;;6.25;4.32;;;2.40;89.90;;;;;;5054653;28;20237;-56
2022/01/06 03:25:23;;;;;;;7.32;4.55;;;2.40;89.50;;;;;;5054757;28;20201;-55
2022/01/06 03:27:50;;;;;;;7.38;4.80;;;2.50;89.00;;;;;;5053474;28;20206;-57
2022/01/06 03:30:20;;;;;;;5.47;3.90;;;2.50;88.70;;;;;;5054035;28;20224;-53
2022/01/06 03:32:48;;;;;;;6.25;4.13;;;2.50;88.30;;;;;;5054681;28;20567;-54
2022/01/06 03:35:17;;;;;;;10.60;3.75;;;2.50;87.80;;;;;;5054496;28;20208;-55
2022/01/06 03:37:44;;;;;;;6.00;4.53;;;2.50;87.80;;;;;;5054608;28;20231;-56
2022/01/06 03:40:11;;;;;;;4.40;3.60;;;2.60;87.80;;;;;;5054430;28;20201;-54
2022/01/06 03:42:39;;;;;;;7.07;3.53;;;2.80;88.40;;;;;;5053037;28;20233;-54
2022/01/06 03:45:08;;;;;;;6.47;3.45;;;3.00;87.30;;;;;;5054439;28;20201;-58
2022/01/06 03:47:37;;;;;;;5.50;3.95;;;3.00;87.10;;;;;;5054462;28;20280;-58
2022/01/06 03:50:04;;;;;;;5.70;4.32;;;3.00;87.10;;;;;;5054499;28;20202;-56
2022/01/06 03:52:31;;;;;;;8.73;3.70;;;2.80;87.40;;;;;;5053873;28;20209;-58
2022/01/06 03:54:58;;;;;;;5.00;4.30;;;2.70;87.90;;;;;;5054342;28;20212;-55
2022/01/06 03:57:25;;;;;;;5.15;4.07;;;2.80;88.10;;;;;;5053008;28;20233;-57
2022/01/06 03:59:52;;;;;;;8.10;4.05;;;2.60;88.20;;;;;;5054263;28;20210;-58
2022/01/06 04:02:19;;;;;;;4.95;3.85;;;2.60;89.20;;;;;;5054063;28;20265;-54
2022/01/06 04:04:47;;;;;;;10.02;4.13;;;2.60;88.90;;;;;;5054058;28;20202;-57
2022/01/06 04:07:14;;;;;;;6.85;3.95;;;2.50;88.90;;;;;;5053723;28;20206;-58
2022/01/06 04:09:41;;;;;;;5.22;3.80;;;2.50;89.00;;;;;;5053990;28;20205;-57
2022/01/06 04:12:10;;;;;;;8.50;4.65;;;2.30;89.40;;;;;;5052499;28;20244;-57
2022/01/06 04:14:37;;;;;;;8.80;3.80;;;2.40;89.60;;;;;;5053907;28;20202;-57
2022/01/06 04:17:07;;;;;;;6.85;4.25;;;2.50;89.70;;;;;;5053747;28;20225;-59
2022/01/06 04:19:34;;;;;;;5.07;3.67;;;2.60;89.10;;;;;;5053764;28;20280;-59
2022/01/06 04:22:03;;;;;;;5.28;3.55;;;2.80;88.80;;;;;;5053447;28;20233;-56
2022/01/06 04:24:30;;;;;;;5.38;3.67;;;2.80;87.90;;;;;;5053688;28;20223;-56
2022/01/06 04:26:57;;;;;;;9.50;4.10;;;2.80;87.70;;;;;;5052495;28;20201;-56
2022/01/06 04:29:24;;;;;;;5.10;3.92;;;2.80;88.40;;;;;;5053674;28;20209;-58
2022/01/06 04:31:51;;;;;;;7.28;4.05;;;2.80;88.00;;;;;;5053630;28;20295;-58
2022/01/06 04:34:18;;;;;;;4.28;3.67;;;2.80;88.20;;;;;;5053442;28;20300;-59
2022/01/06 04:36:49;;;;;;;4.30;3.70;;;2.80;88.10;;;;;;5053415;28;20205;-57
2022/01/06 04:39:17;;;;;;;7.22;4.38;;;2.90;88.50;;;;;;5053252;28;20212;-59
2022/01/06 04:41:44;;;;;;;10.80;4.28;;;2.90;88.20;;;;;;5051450;28;20205;-59
2022/01/06 04:44:11;;;;;;;6.75;3.90;;;2.90;88.10;;;;;;5053036;28;20215;-59
2022/01/06 04:46:38;;;;;;;4.90;3.78;;;2.90;87.90;;;;;;5053366;28;20205;-59
2022/01/06 04:49:05;;;;;;;6.05;4.38;;;2.90;87.90;;;;;;5053139;28;20333;-58
2022/01/06 04:51:32;;;;;;;7.03;3.90;;;2.70;88.00;;;;;;5052844;28;20739;-57
2022/01/06 04:53:59;;;;;;;6.50;4.28;;;2.70;88.40;;;;;;5053396;28;20215;-56
2022/01/06 04:56:27;;;;;;;8.93;4.30;;;2.70;88.80;;;;;;5051835;28;20858;-59
2022/01/06 04:58:54;;;;;;;5.15;3.55;;;2.70;88.60;;;;;;5053189;28;20205;-57
2022/01/06 05:01:21;;;;;;;6.07;4.00;;;2.60;88.60;;;;;;5052946;28;20292;-56
2022/01/06 05:03:48;;;;;;;5.82;4.15;;;2.70;88.90;;;;;;5052853;28;20239;-53
2022/01/06 05:06:15;;;;;;;6.75;4.20;;;2.70;88.70;;;;;;5052831;28;20446;-55
2022/01/06 05:08:41;;;;;;;4.60;4.00;;;2.70;88.70;;;;;;5052926;28;20206;-55
2022/01/06 05:11:08;;;;;;;4.57;4.03;;;2.70;88.80;;;;;;5051480;28;20332;-60
2022/01/06 05:13:36;;;;;;;5.45;4.50;;;2.80;88.70;;;;;;5052884;28;20212;-57
2022/01/06 05:16:04;;;;;;;6.03;3.63;;;2.70;88.60;;;;;;5052642;28;20237;-58
2022/01/06 05:18:31;;;;;;;7.28;4.30;;;2.90;88.80;;;;;;5052865;28;20209;-57
2022/01/06 05:20:58;;;;;;;6.75;4.28;;;2.90;88.00;;;;;;5052601;28;20223;-58
2022/01/06 05:23:24;;;;;;;4.93;4.40;;;3.00;87.90;;;;;;5052730;28;20342;-59
2022/01/06 05:25:51;;;;;;;5.28;3.75;;;3.00;87.20;;;;;;5051921;28;20252;-58
2022/01/06 05:28:18;;;;;;;7.13;4.03;;;2.70;87.70;;;;;;5052659;28;20624;-59
2022/01/06 05:30:47;;;;;;;7.35;3.88;;;2.80;88.60;;;;;;5052636;28;20213;-59
2022/01/06 05:33:14;;;;;;;5.80;4.00;;;2.90;88.50;;;;;;5052815;28;20205;-58
2022/01/06 05:35:40;;;;;;;4.82;4.20;;;2.90;88.00;;;;;;5052506;28;20202;-59
2022/01/06 05:38:07;;;;;;;4.93;4.45;;;2.90;88.00;;;;;;5052594;28;20211;-56
2022/01/06 05:40:34;;;;;;;6.00;4.20;;;3.00;87.80;;;;;;5052581;28;20652;-59
2022/01/06 05:43:01;;;;;;;9.90;3.95;;;3.00;87.50;;;;;;5051211;28;20233;-57
2022/01/06 05:45:29;;;;;;;7.55;4.15;;;2.90;87.50;;;;;;5052495;28;20682;-55
2022/01/06 05:47:57;;;;;;;6.03;4.18;;;2.90;87.70;;;;;;5052690;28;20292;-57
2022/01/06 05:50:24;;;;;;;7.10;4.40;;;3.00;88.10;;;;;;5052647;28;20572;-57
2022/01/06 05:52:54;;;;;;;8.82;5.13;;;3.10;87.80;;;;;;5052372;28;20606;-59
2022/01/06 05:55:21;;;;;;;5.50;4.32;;;3.00;86.90;;;;;;5056291;28;20582;-58
2022/01/06 05:57:50;;;;;;;8.07;4.20;;;2.90;87.70;;;;;;5055282;28;20205;-56
2022/01/06 06:00:18;;;;;;;6.88;3.88;;;2.90;88.20;;;;;;5056435;28;20209;-57
2022/01/06 06:02:45;;;;;;;7.80;3.88;;;2.90;88.10;;;;;;5056291;28;20227;-53
2022/01/06 06:05:13;;;;;;;4.20;3.53;;;2.90;88.00;;;;;;5056324;28;20548;-59
2022/01/06 06:07:40;;;;;;;5.03;4.10;;;2.80;88.30;;;;;;5056434;28;20301;-58
2022/01/06 06:10:07;;;;;;;5.82;4.18;;;2.70;88.40;;;;;;5055963;28;20640;-58
2022/01/06 06:12:34;;;;;;;11.93;4.70;;;2.70;88.30;;;;;;5054902;28;20220;-55
2022/01/06 06:15:02;;;;;;;4.80;3.67;;;2.60;88.70;;;;;;5056114;28;20201;-55
2022/01/06 06:17:29;;;;;;;8.90;4.05;;;2.60;89.10;;;;;;5056146;28;20201;-58
2022/01/06 06:19:56;;;;;;;5.43;3.95;;;2.60;89.10;;;;;;5056052;28;20205;-58
2022/01/06 06:22:24;;;;;;;8.25;3.90;;;2.60;88.90;;;;;;5055864;28;20233;-59
2022/01/06 06:24:51;;;;;;;9.23;3.92;;;2.60;88.90;;;;;;5055859;28;20201;-59
2022/01/06 06:27:18;;;;;;;6.05;3.88;;;2.60;88.90;;;;;;5054436;28;20207;-58
2022/01/06 06:29:45;;;;;;;5.38;3.70;;;2.70;89.10;;;;;;5055998;28;20208;-59
2022/01/06 06:32:12;;;;;;;8.30;4.18;;;2.80;88.40;;;;;;5055883;28;20213;-53
2022/01/06 06:34:38;;;;;;;8.73;3.72;;;2.80;88.20;;;;;;5055755;28;20205;-58
2022/01/06 06:37:05;;;;;;;9.48;3.72;;;2.90;88.20;;;;;;5055576;28;20205;-57
2022/01/06 06:39:34;;;;;;;5.95;4.00;;;2.90;87.30;;;;;;5055476;28;20736;-55
2022/01/06 06:42:00;;;;;;;5.90;3.75;;;2.70;88.00;;;;;;5054334;28;20206;-58
2022/01/06 06:44:27;;;;;;;3.88;3.17;;;2.70;88.50;;;;;;5055546;28;20323;-54
2022/01/06 06:46:54;;;;;;;6.40;3.80;;;2.80;87.90;;;;;;5055589;28;20201;-60
2022/01/06 06:49:21;;;;;;;3.90;3.50;;;2.80;88.20;;;;;;5055464;28;20300;-57
2022/01/06 06:51:49;;;;;;;6.28;3.80;;;3.00;88.20;;;;;;5055178;28;20210;-55
2022/01/06 06:54:15;;;;;;;6.00;3.83;;;3.00;87.30;;;;;;5055370;28;20209;-58
2022/01/06 06:56:44;;;;;;;7.65;3.75;;;3.00;87.00;;;;;;5054134;28;20288;-59
2022/01/06 06:59:11;;;;;;;7.07;3.72;;;3.00;87.10;;;;;;5055392;28;20225;-55
2022/01/06 07:01:37;;;;;;;4.40;3.50;;;3.00;87.20;;;;;;5055447;28;20564;-57
2022/01/06 07:04:04;;;;;;;6.05;3.60;;;3.00;87.50;;;;;;5055186;28;20233;-58
2022/01/06 07:06:31;;;;;;;3.95;3.03;;;3.10;87.30;;;;;;5053893;28;20212;-53
2022/01/06 07:08:58;;;;;;;4.10;3.65;;;3.00;86.70;;;;;;5055077;28;20202;-58
2022/01/06 07:11:25;;;;;;;10.15;3.53;;;2.90;86.70;;;;;;5053793;28;20244;-54
2022/01/06 07:13:53;;;;;;;5.82;4.03;;;2.80;87.50;;;;;;5055017;28;20211;-58
2022/01/06 07:16:20;;;;;;;7.05;3.70;;;2.90;87.60;;;;;;5055017;28;20292;-58
2022/01/06 07:18:47;;;;;;;9.55;4.43;;;2.90;87.30;;;;;;5055094;28;20201;-58
2022/01/06 07:21:14;;;;;;;7.40;4.03;;;2.90;87.90;;;;;;5054553;28;20209;-56
2022/01/06 07:23:40;;;;;;;6.30;4.20;;;3.10;87.70;;;;;;5054890;28;20236;-58
2022/01/06 07:26:07;;;;;;;6.50;3.80;;;3.30;87.00;;;;;;5053523;28;20212;-57
2022/01/06 07:28:34;;;;;;;4.90;3.85;;;3.30;86.40;;;;;;5054797;28;20203;-59
2022/01/06 07:31:04;;;;;;;6.43;4.50;;;3.30;86.00;;;;;;5054742;28;20210;-57
2022/01/06 07:33:31;;;;;;;4.78;4.25;;;3.30;86.10;;;;;;5054693;28;20225;-57
2022/01/06 07:35:58;;;;;;;7.05;3.75;;;3.40;86.00;;;;;;5054518;28;20207;-57
2022/01/06 07:38:25;;;;;;;4.60;3.20;;;3.40;85.30;;;;;;5054587;28;20205;-59
2022/01/06 07:40:52;;;;;;;5.07;3.83;;;3.50;85.90;;;;;;5053638;28;20298;-57
2022/01/06 07:43:19;;;;;;;4.45;3.42;;;3.50;85.90;;;;;;5054410;28;20227;-58
2022/01/06 07:45:46;;;;;;;4.75;3.42;;;3.60;85.60;;;;;;5054491;28;20202;-58
2022/01/06 07:48:19;;;;;;;6.13;4.35;;;3.60;85.10;;;;;;5054395;28;20583;-59
2022/01/06 07:50:47;;;;;;;6.80;3.40;;;3.60;84.90;;;;;;5054248;28;20202;-59
2022/01/06 07:53:14;;;;;;;6.90;4.00;;;3.60;84.70;;;;;;5054154;28;20658;-56
2022/01/06 07:55:41;;;;;;;4.47;3.28;;;3.70;85.20;;;;;;5054286;28;20549;-56
2022/01/06 07:58:08;;;;;;;4.90;3.72;;;3.70;84.20;;;;;;5052904;28;20205;-53
2022/01/06 08:00:35;;;;;;;4.28;3.47;;;3.70;84.20;;;;;;5054231;28;20205;-57
2022/01/06 08:03:02;;;;;;;4.85;3.80;;;3.60;84.00;;;;;;5053752;28;20211;-59
2022/01/06 08:05:30;;;;;;;6.28;3.40;;;3.60;84.30;;;;;;5054074;28;20232;-59
2022/01/06 08:07:57;;;;;;;4.55;3.58;;;3.40;84.20;;;;;;5053947;28;20384;-57
2022/01/06 08:10:25;;;;;;;6.07;3.72;;;3.40;85.00;;;;;;5053787;28;20340;-53
2022/01/06 08:12:52;;;;;;;10.23;4.38;;;3.40;84.90;;;;;;5052535;28;20626;-58
2022/01/06 08:15:19;;;;;;;6.93;4.25;;;3.50;84.90;;;;;;5053853;28;20205;-57
2022/01/06 08:17:46;;;;;;;6.60;4.30;;;3.60;84.50;;;;;;5053639;28;20208;-58
2022/01/06 08:20:13;;;;;;;9.75;4.75;;;3.40;84.00;;;;;;5053736;28;20205;-55
2022/01/06 08:22:41;;;;;;;5.93;4.18;;;3.40;84.50;;;;;;5053560;28;20205;-58
2022/01/06 08:25:10;;;;;;;7.43;3.97;;;3.40;84.90;;;;;;5053525;28;20236;-55
2022/01/06 08:27:37;;;;;;;6.47;4.75;;;3.50;84.50;;;;;;5052325;28;20292;-56
2022/01/06 08:30:05;;;;;;;6.78;4.63;;;3.60;84.30;;;;;;5053379;28;20208;-56
2022/01/06 08:32:32;;;;;;;8.45;4.25;;;3.50;84.20;;;;;;5053531;28;20664;-56
2022/01/06 08:34:59;;;;;;;7.70;4.07;;;3.60;84.20;;;;;;5053569;28;20212;-59
2022/01/06 08:37:26;;;;;;;8.15;4.60;;;3.50;83.70;;;;;;5053148;28;20207;-59
2022/01/06 08:39:54;;;;;;;4.50;4.10;;;3.40;84.20;;;;;;5053400;28;20197;-59
2022/01/06 08:42:21;;;;;;;11.77;4.30;;;3.30;84.80;;;;;;5052343;28;20201;-56
2022/01/06 08:44:48;;;;;;;5.63;4.18;;;3.30;84.70;;;;;;5053284;28;20324;-60
2022/01/06 08:47:15;;;;;;;4.65;3.75;;;3.40;85.10;;;;;;5053285;28;20205;-59
2022/01/06 08:49:43;;;;;;;6.47;4.30;;;3.40;84.60;;;;;;5053225;28;20288;-57
2022/01/06 08:52:10;;;;;;;6.93;4.97;;;3.50;84.50;;;;;;5053093;28;20202;-56
2022/01/06 08:54:37;;;;;;;9.27;5.10;;;3.30;84.50;;;;;;5053268;28;20207;-58
2022/01/06 08:57:05;;;;;;;8.68;4.80;;;3.40;85.00;;;;;;5051779;28;20208;-59
2022/01/06 08:59:32;;;;;;;8.13;4.35;;;3.30;85.00;;;;;;5053119;28;20205;-56
2022/01/06 09:01:59;;;;;;;6.18;4.45;;;3.20;84.90;;;;;;5052954;28;20206;-58
2022/01/06 09:04:26;;;;;;;8.98;4.82;;;3.20;85.30;;;;;;5053014;28;20239;-58
2022/01/06 09:06:53;;;;;;;6.38;4.63;;;3.20;85.90;;;;;;5052893;28;20205;-53
2022/01/06 09:09:20;;;;;;;8.55;5.15;;;3.30;85.50;;;;;;5052960;28;20217;-56
2022/01/06 09:11:48;;;;;;;4.90;4.10;;;3.20;85.10;;;;;;5051422;28;20260;-56
2022/01/06 09:14:16;;;;;;;5.05;3.92;;;3.10;85.20;;;;;;5052958;28;20659;-54
2022/01/06 09:16:43;;;;;;;7.93;4.70;;;3.20;85.80;;;;;;5052899;28;20582;-59
2022/01/06 09:19:10;;;;;;;8.27;4.15;;;3.30;85.50;;;;;;5052841;28;20209;-59
2022/01/06 09:21:37;;;;;;;6.55;4.78;;;3.40;84.40;;;;;;5052612;28;20211;-57
2022/01/06 09:24:06;;;;;;;6.45;4.55;;;3.20;84.70;;;;;;5052745;28;20233;-59
2022/01/06 09:26:35;;;;;;;6.68;4.80;;;3.30;85.00;;;;;;5051248;28;20255;-57
2022/01/06 09:29:03;;;;;;;7.18;4.38;;;3.30;84.60;;;;;;5052260;28;20205;-54
2022/01/06 09:31:32;;;;;;;5.72;4.97;;;3.30;84.70;;;;;;5052693;28;20209;-59
2022/01/06 09:33:59;;;;;;;17.80;5.75;;;3.20;84.60;;;;;;5052800;28;20204;-59
2022/01/06 09:36:27;;;;;;;11.52;5.05;;;3.10;84.70;;;;;;5052527;28;20205;-55
2022/01/06 09:38:54;;;;;;;5.40;4.57;;;3.30;85.20;;;;;;5052463;28;20223;-59
2022/01/06 09:41:22;;;;;;;10.57;4.53;;;3.40;84.60;;;;;;5051409;28;20205;-58
2022/01/06 09:43:50;;;;;;;6.45;4.68;;;3.40;84.50;;;;;;5052446;28;20247;-59
2022/01/06 09:46:20;;;;;;;6.13;4.43;;;3.40;83.80;;;;;;5052580;28;20296;-56
2022/01/06 09:48:49;;;;;;;10.70;4.10;;;3.50;83.90;;;;;;5052445;28;20656;-57
2022/01/06 09:51:17;;;;;;;7.18;5.53;;;3.50;83.50;;;;;;5052420;28;20292;-57
2022/01/06 09:53:44;;;;;;;5.35;4.68;;;3.60;83.20;;;;;;5052448;28;20565;-56
2022/01/06 09:56:11;;;;;;;5.65;4.57;;;3.70;83.90;;;;;;5051222;28;20241;-54
2022/01/06 09:58:38;;;;;;;6.93;4.45;;;3.90;82.60;;;;;;5052528;28;20236;-54
2022/01/06 10:01:05;;;;;;;8.25;4.80;;;3.90;82.50;;;;;;5052497;28;20573;-53
2022/01/06 10:03:37;;;;;;;7.38;4.07;;;3.90;82.70;;;;;;5052333;28;20244;-53
2022/01/06 10:06:14;;;;;;;6.95;4.65;;;4.10;82.80;;;;;;5052224;28;20212;-53
2022/01/06 10:08:41;;;;;;;6.28;4.40;;;4.40;82.20;;;;;;5052295;28;20221;-53
2022/01/06 10:11:13;;;;;;;5.25;4.50;;;4.40;81.70;;;;;;5050983;28;20229;-56
2022/01/06 10:13:40;;;;;;;5.88;4.78;;;4.50;81.60;;;;;;5052318;28;20205;-52
2022/01/06 10:16:16;;;;;;;7.57;5.57;;;4.60;80.10;;;;;;5052262;28;20201;-52
2022/01/06 10:18:54;;;;;;;8.40;5.10;;;4.60;80.10;;;;;;5052297;28;20209;-56
2022/01/06 10:21:22;;;;;;;7.43;4.50;;;4.70;80.00;;;;;;5052161;28;20201;-53
2022/01/06 10:23:59;;;;;;;7.70;5.50;;;4.70;79.10;;;;;;5051961;28;20206;-54
2022/01/06 10:26:27;;;;;;;5.50;5.00;;;4.70;79.80;;;;;;5050869;28;20300;-56
2022/01/06 10:28:54;;;;;;;7.20;5.47;;;4.90;78.50;;;;;;5052100;28;20597;-53
2022/01/06 10:31:24;;;;;;;5.68;5.03;;;5.00;79.10;;;;;;5052029;28;20201;-54
2022/01/06 10:33:51;;;;;;;12.40;5.18;;;5.10;78.70;;;;;;5052263;28;20205;-54
2022/01/06 10:36:18;;;;;;;5.35;4.85;;;5.20;78.20;;;;;;5052110;28;20244;-53
2022/01/06 10:38:55;;;;;;;6.47;5.40;;;5.30;78.50;;;;;;5051888;28;20288;-55
2022/01/06 10:41:22;;;;;;;6.80;4.95;;;5.30;78.20;;;;;;5052852;28;20291;-56
2022/01/06 10:43:50;;;;;;;8.73;5.18;;;5.40;78.30;;;;;;5055463;28;20323;-53
2022/01/06 10:46:32;;;;;;;4.97;4.50;;;5.40;78.30;;;;;;5055642;28;20205;-53
2022/01/06 10:49:00;;;;;;;5.80;5.00;;;5.50;77.70;;;;;;5055594;28;20208;-53
2022/01/06 10:51:36;;;;;;;6.63;4.60;;;5.50;76.80;;;;;;5055516;28;20219;-53
2022/01/06 10:54:11;;;;;;;8.05;4.97;;;5.40;77.30;;;;;;5055219;28;20672;-53
2022/01/06 10:56:38;;;;;;;7.57;6.82;;;5.50;76.90;;;;;;5054348;28;20201;-57
2022/01/06 10:59:05;;;;;;;7.20;5.18;;;5.50;76.70;;;;;;5055436;28;20212;-56
2022/01/06 11:01:33;;;;;;;9.13;4.97;;;5.50;76.40;;;;;;5055339;28;20201;-52
2022/01/06 11:04:00;;;;;;;5.82;4.80;;;5.60;76.60;;;;;;5055118;28;20204;-57
2022/01/06 11:06:27;;;;;;;6.50;5.40;;;5.60;75.40;;;;;;5055131;28;20201;-54
2022/01/06 11:08:55;;;;;;;12.90;5.85;;;5.50;75.10;;;;;;5055023;28;20251;-53
2022/01/06 11:12:26;;;;;;;8.20;5.20;;;5.50;75.70;;;;;;5053631;28;20229;-55
2022/01/06 11:14:31;;;;;;;6.43;4.65;;;5.50;76.40;;;;;;5054891;28;20209;-53
2022/01/06 11:16:58;;;;;;;7.90;5.22;;;5.60;76.60;;;;;;5054869;28;20208;-56
2022/01/06 11:19:27;;;;;;;6.97;5.45;;;5.70;76.90;;;;;;5054909;28;20212;-58
2022/01/06 11:21:59;;;;;;;8.82;4.93;;;5.70;76.30;;;;;;5054723;28;20216;-59
2022/01/06 11:24:28;;;;;;;5.97;5.40;;;5.80;75.90;;;;;;5054697;28;20220;-54
2022/01/06 11:27:01;;;;;;;5.85;5.13;;;5.80;74.60;;;;;;5053436;28;20205;-52
2022/01/06 11:29:29;;;;;;;6.53;6.00;;;5.60;74.00;;;;;;5054594;28;20675;-54
2022/01/06 11:31:56;;;;;;;6.30;5.70;;;5.60;75.10;;;;;;5054565;28;20244;-55
2022/01/06 11:34:23;;;;;;;9.18;6.03;;;5.60;75.70;;;;;;5054593;28;20215;-53
2022/01/06 11:36:52;;;;;;;6.95;5.57;;;5.50;74.80;;;;;;5054511;28;20265;-53
2022/01/06 11:39:25;;;;;;;5.95;5.55;;;5.50;74.70;;;;;;5054641;28;20205;-53
2022/01/06 11:41:53;;;;;;;9.18;5.20;;;5.80;75.90;;;;;;5053040;28;20201;-53
2022/01/06 11:44:23;;;;;;;6.60;6.00;;;5.90;74.90;;;;;;5054365;28;20226;-58
2022/01/06 11:46:52;;;;;;;6.88;5.25;;;6.00;75.00;;;;;;5054443;28;20201;-54
2022/01/06 11:49:31;;;;;;;6.95;6.38;;;5.90;74.30;;;;;;5054517;28;20208;-58
2022/01/06 11:52:05;;;;;;;6.70;6.00;;;5.70;74.30;;;;;;5053767;28;20215;-57
2022/01/06 11:54:32;;;;;;;6.30;5.30;;;5.70;75.00;;;;;;5054196;28;20209;-53
2022/01/06 11:56:59;;;;;;;6.55;5.30;;;5.70;75.20;;;;;;5052866;28;20245;-56
2022/01/06 11:59:32;;;;;;;6.30;5.70;;;5.70;75.20;;;;;;5054080;28;20197;-57
2022/01/06 12:02:00;;;;;;;6.07;4.55;;;5.70;74.90;;;;;;5054072;28;20212;-57
2022/01/06 12:04:27;;;;;;;6.28;4.97;;;6.20;75.00;;;;;;5054078;28;20324;-57
2022/01/06 12:07:04;;;;;;;8.68;5.22;;;6.60;71.50;;;;;;5053826;28;20208;-55
2022/01/06 12:09:31;;;;;;;8.77;5.82;;;6.80;71.60;;;;;;5053881;28;20225;-56
2022/01/06 12:12:02;;;;;;;8.88;6.40;;;7.00;72.60;;;;;;5052521;28;20316;-56
2022/01/06 12:14:32;;;;;;;5.78;5.30;;;7.40;70.70;;;;;;5053930;28;20721;-53
2022/01/06 12:17:06;;;;;;;7.88;6.50;;;8.30;69.90;;;;;;5053804;28;20300;-58
2022/01/06 12:19:34;;;;;;;7.20;6.60;;;9.60;64.80;;;;;;5053736;28;20208;-57
2022/01/06 12:22:03;;;;;;;7.68;6.60;;;10.10;65.00;;;;;;5053636;28;20221;-60
2022/01/06 12:24:30;;;;;;;7.30;6.60;;;10.10;64.30;;;;;;5053619;28;20263;-58
2022/01/06 12:26:57;;;;;;;6.80;6.25;;;9.90;65.60;;;;;;5052320;28;20209;-58
2022/01/06 12:29:26;;;;;;;7.50;6.80;;;9.60;65.00;;;;;;5053432;28;20248;-60
2022/01/06 12:32:07;;;;;;;8.60;6.70;;;9.10;63.70;;;;;;5053583;28;20235;-60
2022/01/06 12:34:33;;;;;;;7.32;6.72;;;8.40;63.60;;;;;;5053589;28;20205;-56
2022/01/06 12:37:00;;;;;;;7.20;6.63;;;7.80;66.20;;;;;;5053282;28;20205;-55
2022/01/06 12:39:28;;;;;;;6.65;6.20;;;7.40;67.60;;;;;;5053432;28;20225;-54
2022/01/06 12:41:54;;;;;;;6.93;6.25;;;7.00;68.10;;;;;;5052025;28;20201;-53
2022/01/06 12:44:27;;;;;;;10.00;9.20;;;6.80;69.00;;;;;;5053125;28;20232;-55
2022/01/06 12:46:56;;;;;;;11.32;6.95;;;6.60;69.50;;;;;;5053179;28;20235;-54
2022/01/06 12:49:26;;;;;;;9.80;8.85;;;6.50;69.70;;;;;;5053418;28;20215;-59
2022/01/06 12:51:54;;;;;;;11.98;7.57;;;6.40;70.40;;;;;;5053223;28;20201;-57
2022/01/06 12:54:23;;;;;;;6.72;6.20;;;6.30;71.00;;;;;;5052853;28;20208;-58
2022/01/06 12:56:53;;;;;;;7.97;7.05;;;6.60;70.60;;;;;;5051933;28;20205;-54
2022/01/06 12:59:28;;;;;;;8.13;6.40;;;6.70;70.10;;;;;;5053051;28;20201;-56
2022/01/06 13:01:59;;;;;;;8.73;6.50;;;6.60;70.20;;;;;;5052973;28;20308;-54
2022/01/06 13:04:28;;;;;;;7.50;6.80;;;6.70;71.10;;;;;;5052089;28;20648;-59
2022/01/06 13:06:56;;;;;;;7.03;5.05;;;6.70;70.30;;;;;;5052901;28;20296;-59